Time;durP1;ratioP1;P1;durP2;ratioP2;P2;SDS_P1;SDS_P2;PMS_P1;PMS_P2;Temp;Humidity;BMP_temperature;BMP_pressure;BME280_temperature;BME280_humidity;BME280_pressure;Samples;Min_cycle;Max_cycle;Signal;HPM_P1;HPM_P2
2023/01/14 01:51:26;;;;;;;35.83;16.10;;;;;;;-2.12;90.00;100919.74;1829760;77;22175;-61
2023/01/14 01:53:56;;;;;;;33.35;13.98;;;;;;;-2.17;89.84;100920.53;1788375;80;21123;-61
2023/01/14 01:56:29;;;;;;;28.42;13.32;;;;;;;-2.23;89.76;100914.23;1788695;80;21154;-60
2023/01/14 01:58:58;;;;;;;31.70;13.68;;;;;;;-2.24;89.86;100907.16;1788218;80;21522;-60
2023/01/14 02:01:26;;;;;;;31.60;13.13;;;;;;;-2.21;89.98;100907.42;1788723;80;21091;-61
2023/01/14 02:03:56;;;;;;;28.23;13.10;;;;;;;-2.18;90.04;100916.13;1788556;80;21511;-59
2023/01/14 02:06:25;;;;;;;28.05;12.85;;;;;;;-2.15;90.01;100913.72;1788493;80;21231;-60
2023/01/14 02:08:54;;;;;;;31.73;12.80;;;;;;;-2.17;90.02;100913.83;1788368;80;21119;-61
2023/01/14 02:11:47;;;;;;;29.42;12.45;;;;;;;-2.17;89.97;100915.65;1788537;80;21130;-62
2023/01/14 02:14:47;;;;;;;30.43;13.18;;;;;;;-2.18;90.01;100917.95;1776771;79;21126;-60
2023/01/14 02:17:44;;;;;;;26.20;12.15;;;;;;;-2.20;90.06;100916.72;1787987;80;21119;-61
2023/01/14 02:20:33;;;;;;;23.32;9.90;;;;;;;-2.20;90.11;100913.17;1733336;82;21110;-61
2023/01/14 02:23:29;;;;;;;26.68;11.48;;;;;;;-2.24;90.18;100912.03;1737705;82;21181;-60
2023/01/14 02:26:22;;;;;;;27.80;12.75;;;;;;;-2.24;90.29;100912.03;1672879;86;21234;-62
2023/01/14 02:29:30;;;;;;;24.72;11.10;;;;;;;-2.25;90.39;100914.34;1734960;82;21195;-61
2023/01/14 02:32:13;;;;;;;24.82;11.20;;;;;;;-2.27;90.42;100910.90;1724151;83;22185;-60
2023/01/14 02:34:59;;;;;;;24.10;10.90;;;;;;;-2.30;90.52;100917.81;1740084;82;21559;-60
2023/01/14 02:37:40;;;;;;;25.37;11.00;;;;;;;-2.30;90.67;100924.53;1724251;83;21122;-59
2023/01/14 02:40:23;;;;;;;24.50;10.53;;;;;;;-2.29;90.77;100923.56;1739847;82;21116;-60
2023/01/14 02:45:48;;;;;;;22.42;10.90;;;;;;;-2.24;90.94;100926.80;1740135;82;21119;-61
2023/01/14 02:48:17;;;;;;;27.58;10.75;;;;;;;-2.27;90.92;100924.32;1723906;83;21102;-61
2023/01/14 02:50:46;;;;;;;25.52;9.73;;;;;;;-2.30;90.91;100920.98;1729995;82;21621;-60
2023/01/14 02:53:19;;;;;;;23.40;9.90;;;;;;;-2.36;90.95;100932.13;1708601;84;21239;-60
2023/01/14 02:55:49;;;;;;;23.18;10.72;;;;;;;-2.38;91.13;100929.55;1774992;80;21531;-60
2023/01/14 02:58:31;;;;;;;23.25;9.18;;;;;;;-2.42;91.26;100928.51;1774995;81;21182;-59
2023/01/14 03:01:21;;;;;;;24.40;10.18;;;;;;;-2.45;91.33;100924.20;1774791;81;21115;-59
2023/01/14 03:04:10;;;;;;;22.82;10.30;;;;;;;-2.46;91.52;100929.20;1774443;80;21154;-59
2023/01/14 03:06:48;;;;;;;35.63;12.70;;;;;;;-2.44;91.75;100931.78;1774192;81;21777;-60
2023/01/14 03:09:48;;;;;;;26.00;11.12;;;;;;;-2.44;91.80;100935.33;1774428;80;21131;-61
2023/01/14 03:12:25;;;;;;;22.73;10.05;;;;;;;-2.45;91.89;100929.58;1774430;81;21103;-60
2023/01/14 03:15:04;;;;;;;22.50;10.00;;;;;;;-2.45;92.00;100938.97;1774899;80;21569;-62
2023/01/14 03:17:46;;;;;;;20.25;8.90;;;;;;;-2.44;92.15;100947.40;1774696;81;21609;-61
2023/01/14 03:20:21;;;;;;;21.25;8.98;;;;;;;-2.42;92.20;100944.12;1774761;81;21167;-63
2023/01/14 03:22:50;;;;;;;19.90;8.45;;;;;;;-2.43;92.20;100934.36;1774581;81;21111;-59
2023/01/14 03:25:21;;;;;;;18.55;8.75;;;;;;;-2.44;92.16;100946.53;1774395;81;21153;-60
2023/01/14 03:27:51;;;;;;;18.23;8.40;;;;;;;-2.48;92.21;100939.17;1763928;81;21116;-59
2023/01/14 03:30:30;;;;;;;17.95;8.83;;;;;;;-2.51;92.23;100947.91;1774477;81;21120;-60
2023/01/14 03:33:28;;;;;;;18.62;8.40;;;;;;;-2.54;92.36;100946.28;1774695;80;21782;-61
2023/01/14 03:35:57;;;;;;;18.65;8.45;;;;;;;-2.56;92.47;100948.20;1774445;80;21084;-60
2023/01/14 03:38:32;;;;;;;21.00;8.55;;;;;;;-2.59;92.55;100941.70;1774395;81;21524;-60
2023/01/14 03:41:00;;;;;;;19.50;9.03;;;;;;;-2.61;92.65;100940.91;1774345;80;21201;-62
2023/01/14 03:43:37;;;;;;;18.02;8.75;;;;;;;-2.63;92.76;100938.80;1774240;79;21128;-60
2023/01/14 03:46:06;;;;;;;16.45;8.25;;;;;;;-2.64;92.83;100937.94;1774578;81;21592;-58
2023/01/14 03:48:35;;;;;;;16.90;8.08;;;;;;;-2.63;93.01;100932.09;1774493;81;21147;-59
2023/01/14 03:51:12;;;;;;;15.55;7.83;;;;;;;-2.60;93.16;100938.64;1782476;80;21546;-59
2023/01/14 03:53:59;;;;;;;19.52;8.13;;;;;;;-2.62;93.17;100936.50;1788321;80;21135;-60
2023/01/14 03:56:33;;;;;;;13.73;6.10;;;;;;;-2.64;93.25;100942.45;1784966;80;21164;-61
2023/01/14 03:59:20;;;;;;;19.42;8.28;;;;;;;-2.67;93.28;100938.14;1787305;80;21158;-60
2023/01/14 04:01:51;;;;;;;18.07;7.42;;;;;;;-2.69;93.38;100941.41;1788411;80;21115;-59
2023/01/14 04:04:23;;;;;;;17.65;8.10;;;;;;;-2.70;93.43;100945.53;1788682;80;21115;-60
2023/01/14 04:06:54;;;;;;;16.57;7.78;;;;;;;-2.71;93.53;100954.53;1788324;80;21123;-61
2023/01/14 04:09:22;;;;;;;16.17;7.72;;;;;;;-2.71;93.55;100953.20;1788237;80;21147;-61
2023/01/14 04:11:51;;;;;;;16.05;7.22;;;;;;;-2.71;93.58;100950.52;1788112;80;21538;-60
2023/01/14 04:17:07;;;;;;;18.05;7.37;;;;;;;-2.75;93.57;100948.51;1788283;80;21107;-60
2023/01/14 04:19:36;;;;;;;15.38;7.37;;;;;;;-2.73;93.65;100948.41;1788431;80;21190;-61
2023/01/14 04:22:07;;;;;;;16.35;7.58;;;;;;;-2.76;93.62;100950.81;1788447;80;21142;-60
2023/01/14 04:24:36;;;;;;;14.80;7.55;;;;;;;-2.76;93.66;100952.63;1788373;80;21099;-59
2023/01/14 04:27:05;;;;;;;19.27;8.05;;;;;;;-2.73;93.75;100957.80;1788394;80;21142;-61
2023/01/14 04:29:34;;;;;;;20.17;8.50;;;;;;;-2.72;93.80;100959.04;1788365;80;21146;-60
2023/01/14 04:32:03;;;;;;;16.52;7.95;;;;;;;-2.71;93.82;100959.90;1788287;80;21181;-59
2023/01/14 04:34:32;;;;;;;22.75;8.30;;;;;;;-2.68;93.90;100964.58;1788162;80;21103;-59
2023/01/14 04:37:01;;;;;;;17.90;8.23;;;;;;;-2.70;93.80;100960.28;1788389;80;21103;-60
2023/01/14 04:39:29;;;;;;;17.92;8.00;;;;;;;-2.71;93.84;100955.39;1788373;80;21119;-61
2023/01/14 04:44:47;;;;;;;20.77;8.90;;;;;;;-2.72;93.95;100963.55;1788545;79;21115;-62
2023/01/14 04:47:18;;;;;;;18.12;8.33;;;;;;;-2.73;93.99;100957.80;1788149;80;21147;-62
2023/01/14 04:49:47;;;;;;;19.25;7.80;;;;;;;-2.71;94.07;100966.13;1788347;80;21119;-62
2023/01/14 04:52:15;;;;;;;17.70;7.97;;;;;;;-2.69;94.07;100974.08;1774480;80;21107;-61
2023/01/14 04:54:44;;;;;;;19.23;8.05;;;;;;;-2.71;94.05;100974.17;1774212;81;21117;-60
2023/01/14 04:57:14;;;;;;;19.15;8.53;;;;;;;-2.71;94.01;100970.14;1774477;81;21115;-60
2023/01/14 04:59:44;;;;;;;22.62;9.25;;;;;;;-2.73;93.99;100969.86;1774328;81;21915;-61
2023/01/14 05:02:14;;;;;;;18.17;7.72;;;;;;;-2.73;94.08;100969.38;1774722;81;21103;-60
2023/01/14 05:04:43;;;;;;;19.27;8.00;;;;;;;-2.71;94.13;100970.14;1774678;81;21543;-61
2023/01/14 05:07:12;;;;;;;18.77;8.05;;;;;;;-2.71;94.10;100977.33;1774606;81;21719;-62
2023/01/14 05:09:41;;;;;;;15.58;7.33;;;;;;;-2.71;94.10;100975.99;1774023;81;21530;-61
2023/01/14 05:12:10;;;;;;;15.60;7.10;;;;;;;-2.72;94.05;100975.13;1774572;81;21143;-62
2023/01/14 05:14:41;;;;;;;14.05;7.00;;;;;;;-2.73;93.95;100981.94;1774603;80;21107;-61
2023/01/14 05:17:10;;;;;;;17.17;7.25;;;;;;;-2.79;93.81;100976.97;1774492;81;21151;-61
2023/01/14 05:19:38;;;;;;;18.17;7.95;;;;;;;-2.84;93.71;100977.27;1774475;81;21543;-60
2023/01/14 05:22:07;;;;;;;17.30;7.45;;;;;;;-2.88;93.72;100978.41;1774750;81;21520;-61
2023/01/14 05:24:38;;;;;;;19.02;7.45;;;;;;;-2.85;93.85;100973.34;1774473;79;21767;-60
2023/01/14 05:27:07;;;;;;;16.85;7.10;;;;;;;-2.87;93.86;100980.14;1774529;81;21108;-61
2023/01/14 05:29:38;;;;;;;18.75;6.87;;;;;;;-2.89;93.87;100978.03;1774446;81;21558;-59
2023/01/14 05:32:09;;;;;;;18.35;7.28;;;;;;;-2.93;93.88;100978.70;1774525;79;21163;-59
2023/01/14 05:34:37;;;;;;;17.25;7.60;;;;;;;-2.95;93.92;100980.63;1774398;81;21104;-60
2023/01/14 05:37:07;;;;;;;17.02;7.20;;;;;;;-2.95;94.01;100983.78;1774369;81;21080;-60
2023/01/14 05:39:35;;;;;;;20.08;7.92;;;;;;;-2.94;94.06;100989.05;1774305;81;21397;-60
2023/01/14 05:47:40;;;;;;;18.62;8.08;;;;;;;-2.91;94.14;100990.67;1774162;79;21208;-61
2023/01/14 05:50:11;;;;;;;17.92;7.78;;;;;;;-2.93;94.22;100991.25;1774530;81;21194;-62
2023/01/14 05:52:39;;;;;;;18.23;7.92;;;;;;;-2.94;94.17;100997.57;1787560;80;21590;-61
2023/01/14 05:55:09;;;;;;;22.00;8.85;;;;;;;-2.94;94.27;100996.23;1788135;80;21535;-61
2023/01/14 05:57:39;;;;;;;20.92;8.45;;;;;;;-2.93;94.34;100992.59;1788140;80;21653;-60
2023/01/14 06:06:20;;;;;;;17.80;7.95;;;;;;;-2.92;94.39;100996.52;1788125;79;21581;-60
2023/01/14 06:08:02;;;;;;;21.75;9.38;;;;;;;-2.90;94.43;101003.98;1788190;80;21592;-61
2023/01/14 06:10:30;;;;;;;23.15;9.40;;;;;;;-2.90;94.51;101003.13;1788114;80;21134;-61
2023/01/14 06:13:09;;;;;;;19.73;8.75;;;;;;;-2.87;94.64;101001.11;1788043;80;21114;-60
2023/01/14 06:15:36;;;;;;;20.92;9.00;;;;;;;-2.85;94.63;100995.65;1788125;80;21585;-60
2023/01/14 06:18:09;;;;;;;19.75;8.73;;;;;;;-2.83;94.70;100998.23;1787939;80;21099;-59
2023/01/14 06:20:38;;;;;;;21.12;8.58;;;;;;;-2.81;94.73;101001.67;1788061;79;21115;-60
2023/01/14 06:23:09;;;;;;;20.62;8.53;;;;;;;-2.81;94.75;100997.17;1788156;80;21091;-60
2023/01/14 06:25:38;;;;;;;20.00;8.60;;;;;;;-2.79;94.76;100997.08;1788253;80;21612;-59
2023/01/14 06:28:07;;;;;;;18.65;8.15;;;;;;;-2.76;94.80;100995.54;1788093;80;21115;-61
2023/01/14 06:30:35;;;;;;;18.32;8.38;;;;;;;-2.74;94.79;100997.16;1788216;80;21150;-60
2023/01/14 06:33:06;;;;;;;21.33;8.88;;;;;;;-2.74;94.73;101000.33;1788404;80;21095;-59
2023/01/14 06:35:37;;;;;;;23.32;9.08;;;;;;;-2.74;94.74;101002.53;1788044;80;21154;-61
2023/01/14 06:38:05;;;;;;;21.12;8.28;;;;;;;-2.72;94.73;100999.75;1788650;79;21135;-61
2023/01/14 06:40:36;;;;;;;18.32;7.90;;;;;;;-2.72;94.70;101006.45;1788262;80;21158;-61
2023/01/14 06:43:06;;;;;;;18.10;7.92;;;;;;;-2.74;94.58;101003.87;1788030;80;21142;-59
2023/01/14 06:45:35;;;;;;;20.32;9.05;;;;;;;-2.74;94.59;101005.69;1788241;80;21643;-61
2023/01/14 06:48:04;;;;;;;22.67;9.00;;;;;;;-2.74;94.68;101003.87;1788125;80;21158;-60
2023/01/14 06:50:33;;;;;;;20.65;8.90;;;;;;;-2.71;94.68;101000.13;1788197;80;21574;-61
2023/01/14 06:53:03;;;;;;;21.45;8.95;;;;;;;-2.72;94.69;100997.92;1774470;80;21189;-58
2023/01/14 06:55:32;;;;;;;21.85;8.80;;;;;;;-2.72;94.62;100999.27;1774848;81;21480;-61
2023/01/14 06:58:01;;;;;;;20.27;8.55;;;;;;;-2.72;94.71;100998.41;1774447;79;21159;-59
2023/01/14 07:00:29;;;;;;;21.12;9.45;;;;;;;-2.72;94.71;101002.43;1774476;81;21131;-60
2023/01/14 07:02:59;;;;;;;20.52;9.05;;;;;;;-2.72;94.69;101001.95;1774664;81;21151;-60
2023/01/14 07:05:29;;;;;;;23.87;9.60;;;;;;;-2.72;94.69;100999.75;1774832;81;21515;-61
2023/01/14 07:07:58;;;;;;;25.15;9.45;;;;;;;-2.72;94.78;101002.43;1774546;81;21239;-60
2023/01/14 07:10:27;;;;;;;22.10;9.60;;;;;;;-2.69;94.91;101007.12;1774415;81;21100;-61
2023/01/14 07:12:55;;;;;;;23.70;9.28;;;;;;;-2.65;94.97;100999.73;1774518;81;21115;-59
2023/01/14 07:15:24;;;;;;;24.80;9.85;;;;;;;-2.62;94.97;101003.56;1774472;81;21311;-60
2023/01/14 07:17:53;;;;;;;21.60;9.13;;;;;;;-2.60;94.98;101006.56;1774563;81;21566;-57
2023/01/14 07:20:22;;;;;;;23.70;10.38;;;;;;;-2.61;94.94;101007.48;1774353;81;21170;-59
2023/01/14 07:22:52;;;;;;;27.30;9.40;;;;;;;-2.58;94.96;101015.37;1774590;81;21080;-59
2023/01/14 07:25:20;;;;;;;22.22;8.90;;;;;;;-2.57;94.95;101017.09;1774558;81;21239;-58
2023/01/14 07:27:52;;;;;;;29.57;10.75;;;;;;;-2.54;95.00;101025.42;1774539;81;21104;-58
2023/01/14 07:30:21;;;;;;;24.70;9.48;;;;;;;-2.51;95.02;101010.95;1774463;81;21523;-59
2023/01/14 07:32:50;;;;;;;23.12;10.00;;;;;;;-2.48;95.04;101012.09;1774677;81;21119;-59
2023/01/14 07:35:20;;;;;;;26.75;10.35;;;;;;;-2.47;94.95;101011.98;1774289;81;21096;-57
2023/01/14 07:37:51;;;;;;;25.52;10.30;;;;;;;-2.45;94.97;101020.80;1774477;81;21123;-59
2023/01/14 07:40:20;;;;;;;23.70;10.60;;;;;;;-2.43;94.99;101019.36;1763793;80;21111;-60
2023/01/14 07:42:58;;;;;;;23.52;9.65;;;;;;;-2.41;95.01;101014.27;1763735;81;21112;-59
2023/01/14 07:45:29;;;;;;;27.05;10.80;;;;;;;-2.39;94.86;101023.08;1774328;80;21119;-61
2023/01/14 07:48:00;;;;;;;31.05;10.95;;;;;;;-2.38;94.82;101020.78;1774459;81;22076;-62
2023/01/14 07:50:30;;;;;;;26.42;10.55;;;;;;;-2.35;94.85;101023.27;1774817;81;21092;-60
2023/01/14 07:53:00;;;;;;;27.65;11.00;;;;;;;-2.35;94.77;101023.74;1774345;80;21108;-61
2023/01/14 07:55:30;;;;;;;27.50;10.93;;;;;;;-2.34;94.73;101026.81;1774570;81;21112;-61
2023/01/14 07:57:58;;;;;;;29.52;10.60;;;;;;;-2.34;94.73;101029.02;1774425;81;21546;-59
2023/01/14 08:00:28;;;;;;;27.07;10.72;;;;;;;-2.32;94.71;101024.41;1774450;81;21143;-60
2023/01/14 08:02:57;;;;;;;25.20;10.65;;;;;;;-2.29;94.76;101026.89;1774376;81;21597;-59
2023/01/14 08:05:26;;;;;;;27.85;10.93;;;;;;;-2.26;94.74;101037.91;1774449;81;21152;-60
2023/01/14 08:07:57;;;;;;;27.13;11.30;;;;;;;-2.24;94.72;101031.48;1774479;81;21135;-59
2023/01/14 08:10:26;;;;;;;25.70;10.95;;;;;;;-2.20;94.75;101033.48;1774421;81;21147;-59
2023/01/14 08:12:56;;;;;;;25.23;10.32;;;;;;;-2.16;94.68;101044.88;1774474;81;21605;-59
2023/01/14 08:15:27;;;;;;;25.02;10.13;;;;;;;-2.15;94.57;101045.25;1774389;81;21107;-60
2023/01/14 08:17:56;;;;;;;23.05;9.43;;;;;;;-2.17;94.48;101040.47;1774660;79;21163;-59
2023/01/14 08:20:26;;;;;;;25.60;9.25;;;;;;;-2.19;94.33;101047.76;1774386;81;21187;-61
2023/01/14 08:22:59;;;;;;;20.55;8.95;;;;;;;-2.17;94.36;101048.03;1774356;81;21585;-60
2023/01/14 08:25:28;;;;;;;24.37;10.10;;;;;;;-2.15;94.26;101047.94;1774397;79;21147;-59
2023/01/14 08:28:00;;;;;;;23.60;8.58;;;;;;;-2.15;94.20;101046.59;1730871;83;21096;-61
2023/01/14 08:30:28;;;;;;;22.45;8.80;;;;;;;-2.16;94.09;101045.73;1730973;83;21546;-59
2023/01/14 08:32:57;;;;;;;24.80;9.85;;;;;;;-2.16;94.05;101050.24;1730804;83;21195;-63
2023/01/14 08:35:27;;;;;;;25.35;9.30;;;;;;;-2.16;94.02;101048.90;1730788;83;21514;-60
2023/01/14 08:37:57;;;;;;;27.48;10.30;;;;;;;-2.15;93.98;101047.94;1654351;86;21642;-60
2023/01/14 08:40:28;;;;;;;23.77;9.15;;;;;;;-2.15;93.92;101042.57;1730867;83;21120;-61
2023/01/14 08:42:58;;;;;;;27.37;10.03;;;;;;;-2.15;93.87;101049.28;1730951;83;21193;-62
2023/01/14 08:45:27;;;;;;;27.42;10.13;;;;;;;-2.15;93.81;101060.02;1740225;81;21174;-61
2023/01/14 08:47:57;;;;;;;28.00;10.20;;;;;;;-2.16;93.79;101053.78;1774815;81;21117;-59
2023/01/14 08:50:28;;;;;;;26.05;10.32;;;;;;;-2.15;93.76;101048.80;1774408;80;21538;-59
2023/01/14 08:52:57;;;;;;;31.97;12.68;;;;;;;-2.15;93.76;101052.83;1774260;80;21151;-60
2023/01/14 08:55:26;;;;;;;28.25;10.90;;;;;;;-2.12;93.76;101049.08;1753024;81;21176;-61
2023/01/14 08:57:58;;;;;;;29.75;11.03;;;;;;;-2.10;93.78;101047.16;1743638;81;21125;-58
2023/01/14 09:00:30;;;;;;;28.70;11.40;;;;;;;-2.08;93.78;101039.86;1743945;81;21118;-58
2023/01/14 09:02:59;;;;;;;28.90;11.65;;;;;;;-2.01;94.03;101040.70;1743831;81;21153;-59
2023/01/14 09:05:28;;;;;;;28.45;11.22;;;;;;;-1.96;93.98;101043.08;1743491;82;21195;-61
2023/01/14 09:19:02;;;;;;;32.40;11.78;;;;;;;-1.94;93.63;101022.38;1722410;82;21533;-57
2023/01/14 09:21:31;;;;;;;31.15;11.05;;;;;;;-1.94;93.63;101022.38;1733405;81;21160;-60
2023/01/14 09:23:59;;;;;;;31.30;10.98;;;;;;;-1.95;93.57;101024.20;1743970;81;21168;-60
2023/01/14 09:26:28;;;;;;;31.33;11.63;;;;;;;-1.96;93.58;101022.94;1743777;81;21157;-59
2023/01/14 09:28:57;;;;;;;32.55;11.75;;;;;;;-1.93;93.68;101028.99;1743651;81;21533;-61
2023/01/14 09:31:27;;;;;;;26.40;10.90;;;;;;;-1.90;93.71;101021.70;1743628;82;21172;-61
2023/01/14 09:33:55;;;;;;;25.60;9.53;;;;;;;-1.89;93.70;101024.76;1743613;82;21260;-58
2023/01/14 09:36:25;;;;;;;28.38;11.30;;;;;;;-1.88;93.66;101027.83;1743723;81;21129;-59
2023/01/14 09:38:54;;;;;;;29.55;10.75;;;;;;;-1.89;93.58;101029.65;1743512;82;21097;-60
2023/01/14 09:41:36;;;;;;;26.65;10.90;;;;;;;-1.89;93.50;101024.28;1743701;81;21636;-61
2023/01/14 09:44:06;;;;;;;22.50;9.23;;;;;;;-1.89;93.46;101029.65;1770815;81;21174;-61
2023/01/14 09:46:36;;;;;;;22.40;8.65;;;;;;;-1.89;93.49;101025.62;1686961;84;21139;-59
2023/01/14 09:49:06;;;;;;;26.40;9.55;;;;;;;-1.85;93.48;101023.59;1772660;81;21549;-59
2023/01/14 09:52:08;;;;;;;28.70;10.80;;;;;;;-1.82;93.54;101025.59;1706368;84;21199;-60
2023/01/14 09:54:57;;;;;;;25.65;9.35;;;;;;;-1.72;93.88;101028.03;1772598;81;21142;-60
2023/01/14 09:57:46;;;;;;;29.00;11.22;;;;;;;-1.65;93.65;101027.13;1772462;81;21179;-59
2023/01/14 10:00:32;;;;;;;25.65;10.28;;;;;;;-1.68;93.27;101022.83;1706601;84;21136;-58
2023/01/14 10:03:27;;;;;;;26.27;9.80;;;;;;;-1.69;93.19;101011.70;1772454;81;21134;-59
2023/01/14 10:06:07;;;;;;;21.68;9.60;;;;;;;-1.69;93.03;101014.39;1706445;84;21179;-59
2023/01/14 10:08:47;;;;;;;24.02;9.70;;;;;;;-1.71;92.93;101012.29;1772504;81;21147;-57
2023/01/14 10:11:19;;;;;;;26.65;10.85;;;;;;;-1.69;92.91;101006.33;1706112;84;21183;-61
2023/01/14 10:14:15;;;;;;;27.27;10.50;;;;;;;-1.65;92.88;101009.19;1772626;81;21547;-61
2023/01/14 10:16:54;;;;;;;24.85;10.50;;;;;;;-1.65;92.74;101001.61;1706766;84;21123;-62
2023/01/14 10:19:43;;;;;;;24.70;10.03;;;;;;;-1.64;92.65;101007.36;1772701;81;21388;-58
2023/01/14 10:22:32;;;;;;;29.30;10.85;;;;;;;-1.65;92.56;101006.98;1706381;84;21167;-60
2023/01/14 10:25:03;;;;;;;29.05;11.00;;;;;;;-1.66;92.45;101008.81;1772596;81;21112;-59
2023/01/14 10:27:32;;;;;;;30.10;11.20;;;;;;;-1.65;92.45;101006.50;1706615;84;21259;-61
2023/01/14 10:30:23;;;;;;;26.20;10.78;;;;;;;-1.64;92.44;101002.84;1772539;81;21147;-63
2023/01/14 10:32:54;;;;;;;26.77;10.20;;;;;;;-1.63;92.39;101004.56;1627674;88;21206;-61
2023/01/14 10:35:36;;;;;;;25.45;10.30;;;;;;;-1.55;92.77;101004.52;1627603;88;21154;-60
2023/01/14 10:38:06;;;;;;;24.10;10.15;;;;;;;-1.57;92.53;101006.45;1627576;88;21731;-60
2023/01/14 10:40:36;;;;;;;24.57;9.90;;;;;;;-1.60;92.43;101009.73;1664351;85;21130;-59
2023/01/14 10:43:05;;;;;;;26.85;10.98;;;;;;;-1.62;92.36;101004.95;1606803;88;21196;-62
2023/01/14 10:45:34;;;;;;;45.65;18.87;;;;;;;-1.64;92.28;101000.16;1687593;85;21241;-60
2023/01/14 10:48:05;;;;;;;37.33;14.87;;;;;;;-1.64;92.31;101001.50;1627683;88;21174;-60
2023/01/14 10:50:35;;;;;;;32.63;12.47;;;;;;;-1.64;92.32;101004.19;1690707;81;21112;-60
2023/01/14 10:53:22;;;;;;;34.00;12.28;;;;;;;-1.66;92.30;101006.13;1709973;84;21167;-59
2023/01/14 10:55:58;;;;;;;;;;;;;;;-1.67;92.37;101008.43;1783326;80;21091;-60
2023/01/14 10:58:40;;;;;;;31.02;11.20;;;;;;;-1.68;92.44;100993.27;1781085;80;21312;-62
2023/01/14 11:01:14;;;;;;;30.72;10.53;;;;;;;-1.67;92.49;101000.38;1778346;80;21201;-59
2023/01/14 11:03:47;;;;;;;34.88;11.55;;;;;;;-1.69;92.44;101000.09;1781000;80;21119;-60
2023/01/14 11:06:18;;;;;;;32.20;11.75;;;;;;;-1.73;92.37;100992.73;1780784;80;21099;-61
2023/01/14 11:08:51;;;;;;;29.70;11.12;;;;;;;-1.71;92.48;101004.23;1780792;80;21174;-58
2023/01/14 11:11:25;;;;;;;29.75;10.90;;;;;;;-1.68;92.54;101001.33;1775802;80;21200;-58
2023/01/14 11:13:55;;;;;;;32.15;11.55;;;;;;;-1.63;92.69;100998.33;1714079;84;21601;-58
2023/01/14 11:16:29;;;;;;;31.73;11.93;;;;;;;-1.59;92.85;100995.81;1780916;80;21282;-63
2023/01/14 11:19:19;;;;;;;34.10;12.25;;;;;;;-1.50;93.24;100998.34;1780502;80;21150;-61
2023/01/14 11:21:53;;;;;;;37.30;13.03;;;;;;;-1.47;93.15;100996.80;1714017;84;21558;-64
2023/01/14 11:24:39;;;;;;;38.90;14.03;;;;;;;-1.46;93.01;101002.55;1780784;80;21126;-61
2023/01/14 11:27:17;;;;;;;36.33;13.35;;;;;;;-1.49;92.90;101000.93;1780471;80;21169;-62
2023/01/14 11:29:57;;;;;;;34.35;12.82;;;;;;;-1.49;92.89;100996.04;1780626;80;21134;-61
2023/01/14 11:32:31;;;;;;;33.48;12.40;;;;;;;-1.52;92.80;100994.91;1780482;80;21143;-60
2023/01/14 11:35:01;;;;;;;34.53;12.58;;;;;;;-1.55;92.83;100988.40;1780855;80;21555;-60
2023/01/14 11:37:38;;;;;;;35.35;12.63;;;;;;;-1.54;92.99;100992.33;1780901;80;21563;-60
2023/01/14 11:40:12;;;;;;;28.20;10.20;;;;;;;-1.50;93.02;100988.95;1781405;80;21222;-60
2023/01/14 11:42:42;;;;;;;34.30;13.08;;;;;;;-1.47;93.01;100990.08;1779121;80;21158;-59
2023/01/14 11:45:16;;;;;;;36.05;13.05;;;;;;;-1.43;93.15;100994.27;1714106;83;21155;-59
2023/01/14 11:47:55;;;;;;;36.17;13.10;;;;;;;-1.40;93.03;100995.40;1781133;80;21608;-60
2023/01/14 11:50:34;;;;;;;30.77;11.63;;;;;;;-1.43;92.84;100988.89;1780631;80;21158;-61
2023/01/14 11:53:16;;;;;;;35.17;14.05;;;;;;;-1.48;92.79;100993.73;1778855;79;21111;-62
2023/01/14 11:55:44;;;;;;;36.13;13.80;;;;;;;-1.48;92.84;100994.59;1774094;80;21111;-61
2023/01/14 11:58:28;;;;;;;36.05;13.28;;;;;;;-1.45;92.89;100994.86;1773934;81;21138;-60
2023/01/14 12:01:06;;;;;;;34.48;11.85;;;;;;;-1.44;92.91;100991.20;1774235;80;21484;-60
2023/01/14 12:04:05;;;;;;;32.00;11.53;;;;;;;-1.41;92.98;100995.02;1774251;81;21251;-61
2023/01/14 12:06:49;;;;;;;33.60;13.45;;;;;;;-1.40;92.93;100998.09;1751124;81;21100;-59
2023/01/14 12:09:27;;;;;;;42.80;15.37;;;;;;;-1.39;93.16;100997.13;1774401;81;21163;-60
2023/01/14 12:12:06;;;;;;;34.85;13.50;;;;;;;-1.42;92.98;100993.30;1774024;81;21154;-58
2023/01/14 12:17:37;;;;;;;34.50;13.35;;;;;;;-1.46;93.03;100992.66;1710678;81;21170;-62
2023/01/14 12:20:11;;;;;;;37.23;14.00;;;;;;;-1.44;93.08;100995.23;1743710;82;21625;-60
2023/01/14 12:23:03;;;;;;;38.58;13.25;;;;;;;-1.44;93.16;100992.06;1743222;81;21162;-61
2023/01/14 12:25:43;;;;;;;32.00;12.13;;;;;;;-1.42;93.11;101002.70;1743468;81;21182;-60
2023/01/14 12:28:29;;;;;;;35.95;13.25;;;;;;;-1.43;93.06;101003.67;1743963;81;21178;-60
2023/01/14 12:31:22;;;;;;;33.78;11.93;;;;;;;-1.45;93.02;101003.78;1743518;81;21127;-62
2023/01/14 12:34:21;;;;;;;32.20;12.40;;;;;;;-1.47;93.01;101005.72;1724749;81;21120;-63
2023/01/14 12:37:07;;;;;;;;;;;;;;;-1.46;93.03;101015.98;1746241;81;21103;-61
2023/01/14 12:45:44;;;;;;;30.90;12.18;;;;;;;-1.41;93.51;101007.98;1743392;81;21592;-61
2023/01/14 12:48:20;;;;;;;30.53;12.10;;;;;;;-1.44;93.24;101002.81;1743418;81;21131;-62
2023/01/14 12:51:00;;;;;;;32.08;11.93;;;;;;;-1.44;93.27;101010.02;1743662;82;21175;-62
2023/01/14 12:53:51;;;;;;;31.95;13.25;;;;;;;-1.46;93.22;101009.27;1743067;80;21218;-62
2023/01/14 12:56:31;;;;;;;32.05;12.50;;;;;;;-1.43;93.41;101012.59;1742896;82;21175;-61
2023/01/14 12:59:22;;;;;;;31.30;11.68;;;;;;;-1.41;93.37;101009.80;1743459;81;21095;-61
2023/01/14 13:01:56;;;;;;;32.75;11.65;;;;;;;-1.42;93.28;101011.63;1743498;82;21119;-61
2023/01/14 13:04:36;;;;;;;29.75;12.23;;;;;;;-1.45;93.24;101009.16;1743558;81;21151;-61
2023/01/14 13:07:07;;;;;;;33.88;13.38;;;;;;;-1.41;93.34;101011.15;1735399;81;21856;-61
2023/01/14 13:09:44;;;;;;;34.65;14.15;;;;;;;-1.45;93.21;100998.89;1743510;81;21147;-61
2023/01/14 13:12:26;;;;;;;38.75;15.88;;;;;;;-1.47;93.18;101007.55;1743653;82;21308;-60
2023/01/14 13:14:57;;;;;;;32.93;13.10;;;;;;;-1.48;93.21;101008.02;1743506;81;21107;-61
2023/01/14 13:17:38;;;;;;;30.62;11.60;;;;;;;-1.44;93.48;101017.59;1743442;81;21163;-63
2023/01/14 13:20:35;;;;;;;27.32;11.25;;;;;;;-1.44;93.34;101018.08;1732927;81;21182;-64
2023/01/14 13:23:05;;;;;;;31.07;12.25;;;;;;;-1.46;93.18;101017.33;1743415;81;21123;-62
2023/01/14 13:25:42;;;;;;;30.10;11.43;;;;;;;-1.50;93.19;101018.50;1742958;81;21171;-63
2023/01/14 13:28:17;;;;;;;30.15;11.78;;;;;;;-1.51;93.25;101015.44;1743246;82;21551;-62
2023/01/14 13:31:10;;;;;;;31.05;11.85;;;;;;;-1.52;93.32;101016.41;1743501;82;21178;-62
2023/01/14 13:33:39;;;;;;;28.80;11.45;;;;;;;-1.51;93.35;101018.12;1730779;81;21171;-63
2023/01/14 13:36:12;;;;;;;23.95;10.13;;;;;;;-1.53;93.31;101015.55;1743216;81;21250;-64
2023/01/14 13:38:48;;;;;;;28.75;10.93;;;;;;;-1.54;93.28;101022.36;1732828;81;21178;-64
2023/01/14 13:41:43;;;;;;;27.67;11.22;;;;;;;-1.60;93.19;101020.48;1743415;82;21147;-64
2023/01/14 13:44:30;;;;;;;26.40;9.95;;;;;;;-1.64;93.18;101019.45;1743508;81;21597;-61
2023/01/14 13:47:06;;;;;;;27.52;10.68;;;;;;;-1.65;93.35;101023.96;1743484;81;21166;-62
2023/01/14 13:49:40;;;;;;;28.77;11.88;;;;;;;-1.66;93.37;101026.27;1743430;81;21222;-63
2023/01/14 13:52:21;;;;;;;30.55;11.12;;;;;;;-1.69;93.41;101026.48;1743609;81;21145;-62
2023/01/14 13:55:05;;;;;;;27.73;10.68;;;;;;;-1.66;93.58;101024.06;1743408;81;21558;-62
2023/01/14 13:57:37;;;;;;;28.90;11.38;;;;;;;-1.63;93.75;101027.41;1742042;81;21150;-61
2023/01/14 14:00:23;;;;;;;27.45;10.85;;;;;;;-1.60;93.85;101027.20;1743618;81;21885;-60
2023/01/14 14:02:53;;;;;;;30.97;12.43;;;;;;;-1.54;93.98;101026.39;1705719;84;21559;-60
2023/01/14 14:05:33;;;;;;;26.48;11.50;;;;;;;-1.47;94.15;101024.53;1743365;81;21178;-61
2023/01/14 14:08:12;;;;;;;27.60;11.12;;;;;;;-1.45;94.05;101023.08;1743689;82;21111;-59
2023/01/14 14:10:44;;;;;;;31.40;11.68;;;;;;;-1.46;93.98;101028.08;1743549;81;21120;-61
2023/01/14 14:16:31;;;;;;;32.67;12.45;;;;;;;-1.42;93.95;101028.24;1743720;81;21539;-61
2023/01/14 14:19:16;;;;;;;31.68;12.78;;;;;;;-1.43;93.91;101034.10;1743727;82;21104;-60
2023/01/14 14:22:05;;;;;;;30.90;12.10;;;;;;;-1.44;93.89;101035.55;1743565;82;21583;-62